Time;durP1;ratioP1;P1;durP2;ratioP2;P2;SDS_P1;SDS_P2;PMS_P1;PMS_P2;Temp;Humidity;BMP_temperature;BMP_pressure;BME280_temperature;BME280_humidity;BME280_pressure;Samples;Min_cycle;Max_cycle;Signal;HPM_P1;HPM_P2
2024/01/21 00:01:05;;;;;;;;;;;;;;;16.81;42.16;102182.53;5057778;28;1000;-57
2024/01/21 00:03:30;;;;;;;;;;;;;;;16.11;43.85;102181.44;5057090;28;1261;-57
2024/01/21 00:05:56;;;;;;;;;;;;;;;15.73;44.73;102184.28;5057330;28;1976;-59
2024/01/21 00:08:21;;;;;;;;;;;;;;;15.54;45.01;102180.78;5057786;28;1206;-59
2024/01/21 00:10:47;;;;;;;;;;;;;;;17.03;41.88;102178.09;5056915;28;1032;-58
2024/01/21 00:13:12;;;;;;;;;;;;;;;17.56;40.65;102175.31;5057543;28;1048;-57
2024/01/21 00:15:38;;;;;;;;;;;;;;;16.42;43.07;102185.75;5057024;28;873;-57
2024/01/21 00:18:04;;;;;;;;;;;;;;;15.92;44.09;102186.97;5057099;28;1059;-57
2024/01/21 00:20:30;;;;;;;;;;;;;;;15.59;44.77;102188.28;5057284;28;1070;-57
2024/01/21 00:22:57;;;;;;;;;;;;;;;16.24;43.47;102197.66;5057221;28;1281;-57
2024/01/21 00:25:22;;;;;;;;;;;;;;;17.49;40.63;102191.09;5057028;28;1973;-57
2024/01/21 00:27:48;;;;;;;;;;;;;;;16.66;42.23;102197.59;5055342;28;2396;-58
2024/01/21 00:30:13;;;;;;;;;;;;;;;16.05;43.67;102191.44;5057062;28;1136;-57
2024/01/21 00:32:39;;;;;;;;;;;;;;;15.67;44.68;102201.69;5056577;28;1057;-58
2024/01/21 00:35:05;;;;;;;;;;;;;;;16.12;43.70;102196.81;5057091;28;1048;-58
2024/01/21 00:37:30;;;;;;;;;;;;;;;17.44;40.85;102195.41;5056721;28;1087;-58
2024/01/21 00:39:55;;;;;;;;;;;;;;;16.80;41.88;102186.34;5056836;28;877;-58
2024/01/21 00:42:21;;;;;;;;;;;;;;;16.08;43.58;102185.50;5056720;28;1025;-58
2024/01/21 00:44:47;;;;;;;;;;;;;;;15.68;44.74;102183.31;5056531;28;1914;-58
2024/01/21 00:47:12;;;;;;;;;;;;;;;15.45;45.00;102184.06;5056719;28;1167;-58
2024/01/21 00:49:41;;;;;;;;;;;;;;;16.90;41.85;102189.34;5056316;28;1032;-58
2024/01/21 00:52:06;;;;;;;;;;;;;;;17.17;41.25;102191.59;5055990;28;1042;-58
2024/01/21 00:54:32;;;;;;;;;;;;;;;16.15;43.31;102197.19;5056952;28;1040;-58
2024/01/21 00:56:58;;;;;;;;;;;;;;;15.81;44.27;102185.91;5055834;28;1881;-58
2024/01/21 00:59:23;;;;;;;;;;;;;;;15.55;44.97;102184.34;5056005;28;1051;-58
2024/01/21 01:01:49;;;;;;;;;;;;;;;16.63;42.34;102191.72;5056215;28;1013;-58
2024/01/21 01:04:14;;;;;;;;;;;;;;;17.49;40.35;102185.59;5056051;28;1537;-58
2024/01/21 01:06:40;;;;;;;;;;;;;;;16.42;42.69;102188.50;5055965;28;1910;-58
2024/01/21 01:09:05;;;;;;;;;;;;;;;15.92;43.90;102197.97;5056441;28;1016;-58
2024/01/21 01:11:31;;;;;;;;;;;;;;;15.51;44.76;102191.34;5056576;28;1060;-58
2024/01/21 01:13:57;;;;;;;;;;;;;;;15.63;44.78;102186.75;5056342;28;1119;-58
2024/01/21 01:16:22;;;;;;;;;;;;;;;17.18;41.21;102187.72;5055802;28;1530;-59
2024/01/21 01:18:51;;;;;;;;;;;;;;;17.20;40.97;102185.59;5056421;28;1111;-59
2024/01/21 01:21:16;;;;;;;;;;;;;;;16.21;43.02;102190.75;5056052;28;948;-58
2024/01/21 01:23:42;;;;;;;;;;;;;;;15.79;43.94;102189.91;5056087;28;1132;-58
2024/01/21 01:26:07;;;;;;;;;;;;;;;15.43;44.84;102178.81;5055454;28;1906;-58
2024/01/21 01:28:33;;;;;;;;;;;;;;;16.81;42.04;102185.28;5056027;28;1020;-59
2024/01/21 01:30:58;;;;;;;;;;;;;;;17.73;39.86;102178.91;5055680;28;1431;-59
2024/01/21 01:33:24;;;;;;;;;;;;;;;16.68;41.92;102181.69;5056230;28;1226;-59
2024/01/21 01:35:50;;;;;;;;;;;;;;;16.03;43.42;102177.97;5055907;28;1033;-59
2024/01/21 01:38:15;;;;;;;;;;;;;;;15.64;44.26;102185.69;5056142;28;1028;-59
2024/01/21 01:40:41;;;;;;;;;;;;;;;15.63;44.38;102195.00;5055981;28;1076;-60
2024/01/21 01:43:07;;;;;;;;;;;;;;;17.15;41.13;102188.22;5056080;28;1024;-59
2024/01/21 01:45:32;;;;;;;;;;;;;;;16.98;41.25;102182.66;5055726;28;1898;-59
2024/01/21 01:47:58;;;;;;;;;;;;;;;16.10;43.11;102188.00;5055929;28;1067;-59
2024/01/21 01:50:23;;;;;;;;;;;;;;;15.67;44.18;102184.38;5055786;28;989;-59
2024/01/21 01:52:49;;;;;;;;;;;;;;;15.65;44.55;102192.00;5055019;28;1394;-58
2024/01/21 01:55:15;;;;;;;;;;;;;;;17.21;40.78;102195.50;5055761;28;1166;-58
2024/01/21 01:57:40;;;;;;;;;;;;;;;17.18;40.91;102191.34;5038080;28;2518;-59
2024/01/21 02:00:06;;;;;;;;;;;;;;;16.24;43.03;102193.03;5037933;28;1276;-59
2024/01/21 02:02:37;;;;;;;;;;;;;;;15.78;43.85;102201.94;5055082;28;1292;-58
2024/01/21 02:05:03;;;;;;;;;;;;;;;15.49;44.79;102194.34;5055411;28;1910;-58
2024/01/21 02:07:28;;;;;;;;;;;;;;;16.56;42.29;102183.59;5059752;28;1124;-58
2024/01/21 02:09:54;;;;;;;;;;;;;;;17.55;39.98;102181.88;5059917;28;1274;-58
2024/01/21 02:12:19;;;;;;;;;;;;;;;16.49;42.15;102196.63;5059096;28;1016;-58
2024/01/21 02:14:45;;;;;;;;;;;;;;;15.94;43.39;102193.09;5059107;28;1147;-60
2024/01/21 02:17:10;;;;;;;;;;;;;;;15.59;44.21;102201.19;5059793;28;1031;-60
2024/01/21 02:19:36;;;;;;;;;;;;;;;16.92;41.33;102200.94;5059886;28;1063;-60
2024/01/21 02:22:02;;;;;;;;;;;;;;;17.38;40.24;102193.66;5059449;28;1013;-59
2024/01/21 02:24:31;;;;;;;;;;;;;;;16.33;42.67;102200.94;5041721;28;1057;-59
2024/01/21 02:26:57;;;;;;;;;;;;;;;15.85;43.71;102203.56;5058940;28;2217;-58
2024/01/21 02:29:22;;;;;;;;;;;;;;;15.55;44.22;102201.63;5059813;28;1108;-59
2024/01/21 02:31:49;;;;;;;;;;;;;;;15.94;43.54;102212.28;5059428;28;1098;-59
2024/01/21 02:34:14;;;;;;;;;;;;;;;17.31;40.35;102203.97;5059473;28;1043;-59
2024/01/21 02:36:40;;;;;;;;;;;;;;;17.13;40.54;102213.22;5041555;28;1140;-59
2024/01/21 02:39:05;;;;;;;;;;;;;;;16.20;42.91;102205.56;5059104;28;1083;-59
2024/01/21 02:41:31;;;;;;;;;;;;;;;15.82;43.60;102211.41;5058954;28;1094;-59
2024/01/21 02:43:56;;;;;;;;;;;;;;;15.62;44.01;102220.72;5058957;28;987;-59
2024/01/21 02:46:22;;;;;;;;;;;;;;;17.17;40.98;102213.56;5059048;28;1902;-59
2024/01/21 02:48:47;;;;;;;;;;;;;;;17.04;40.85;102226.50;5058799;28;1111;-60
2024/01/21 02:51:13;;;;;;;;;;;;;;;16.19;42.85;102222.25;5058809;28;1147;-59
2024/01/21 02:53:39;;;;;;;;;;;;;;;15.81;43.61;102229.78;5058913;28;1116;-59
2024/01/21 02:56:04;;;;;;;;;;;;;;;15.55;44.21;102229.03;5058956;28;1900;-59
2024/01/21 02:58:30;;;;;;;;;;;;;;;16.20;42.96;102224.78;5058412;28;1090;-59
2024/01/21 03:00:55;;;;;;;;;;;;;;;17.38;40.29;102226.66;5059663;28;1024;-59
2024/01/21 03:03:21;;;;;;;;;;;;;;;16.98;41.16;102235.69;5058424;28;1488;-59
2024/01/21 03:05:46;;;;;;;;;;;;;;;16.17;42.68;102236.22;5058947;28;1955;-58
2024/01/21 03:08:12;;;;;;;;;;;;;;;15.76;43.72;102231.53;5058570;28;1227;-59
2024/01/21 03:10:37;;;;;;;;;;;;;;;15.51;44.25;102240.69;5059171;28;1071;-59
2024/01/21 03:13:03;;;;;;;;;;;;;;;16.47;42.31;102243.53;5058331;28;1110;-59
2024/01/21 03:15:29;;;;;;;;;;;;;;;17.57;39.98;102238.31;5058878;28;1045;-59
2024/01/21 03:17:54;;;;;;;;;;;;;;;16.66;41.68;102240.69;5057129;28;1005;-59
2024/01/21 03:20:19;;;;;;;;;;;;;;;16.02;42.89;102239.41;5058369;28;1016;-58
2024/01/21 03:22:45;;;;;;;;;;;;;;;15.63;43.83;102244.34;5057590;28;1102;-58
2024/01/21 03:25:11;;;;;;;;;;;;;;;15.94;43.30;102247.97;5057727;28;1913;-58
2024/01/21 03:27:36;;;;;;;;;;;;;;;17.37;40.22;102244.22;5057524;28;2349;-59
2024/01/21 03:30:02;;;;;;;;;;;;;;;16.97;40.89;102255.16;5058198;28;1110;-58
2024/01/21 03:32:27;;;;;;;;;;;;;;;16.05;42.81;102251.81;5058238;28;1075;-59
2024/01/21 03:34:53;;;;;;;;;;;;;;;15.78;43.60;102243.94;5058060;28;1106;-56
2024/01/21 03:37:18;;;;;;;;;;;;;;;15.48;44.14;102257.63;5057964;28;1060;-59
2024/01/21 03:39:44;;;;;;;;;;;;;;;16.77;41.57;102254.44;5057854;28;1105;-59
2024/01/21 03:42:09;;;;;;;;;;;;;;;17.21;40.35;102253.25;5057898;28;1099;-59
2024/01/21 03:44:35;;;;;;;;;;;;;;;16.26;42.47;102264.16;5057541;28;1012;-59
2024/01/21 03:47:00;;;;;;;;;;;;;;;15.85;43.09;102268.53;5057488;28;1926;-59
2024/01/21 03:49:27;;;;;;;;;;;;;;;15.90;43.47;102276.91;5057788;28;1060;-58
2024/01/21 03:51:53;;;;;;;;;;;;;;;17.38;40.13;102281.63;5057684;28;1115;-57
2024/01/21 03:54:18;;;;;;;;;;;;;;;17.18;40.25;102283.94;5057763;28;993;-57
2024/01/21 03:56:44;;;;;;;;;;;;;;;16.22;42.55;102274.75;5057886;28;2330;-57
2024/01/21 03:59:09;;;;;;;;;;;;;;;15.80;43.26;102269.25;5057953;28;1052;-57
2024/01/21 04:01:41;;;;;;;;;;;;;;;15.50;44.12;102285.63;5057708;28;1118;-57
2024/01/21 04:04:07;;;;;;;;;;;;;;;17.12;40.54;102293.16;5057156;28;980;-56
2024/01/21 04:06:37;;;;;;;;;;;;;;;17.22;40.21;102276.88;5057510;28;1914;-57
2024/01/21 04:09:02;;;;;;;;;;;;;;;16.25;42.18;102289.94;5057179;28;1050;-57
2024/01/21 04:11:28;;;;;;;;;;;;;;;15.80;43.26;102293.09;5057548;28;1128;-57
2024/01/21 04:13:53;;;;;;;;;;;;;;;15.57;43.76;102291.84;5057714;28;1143;-57
2024/01/21 04:16:19;;;;;;;;;;;;;;;16.35;42.49;102295.66;5056358;28;1068;-59
2024/01/21 04:18:45;;;;;;;;;;;;;;;17.53;39.72;102294.88;5057335;28;1238;-58
2024/01/21 04:21:11;;;;;;;;;;;;;;;16.94;40.72;102308.69;5056752;28;1071;-58
2024/01/21 04:23:36;;;;;;;;;;;;;;;16.21;42.20;102289.53;5057026;28;1040;-58
2024/01/21 04:26:02;;;;;;;;;;;;;;;15.72;43.37;102300.56;5057070;28;2607;-58
2024/01/21 04:28:27;;;;;;;;;;;;;;;15.55;44.04;102311.28;5055860;28;1176;-58
2024/01/21 04:30:53;;;;;;;;;;;;;;;17.07;40.50;102307.63;5056554;28;1215;-59
2024/01/21 04:33:18;;;;;;;;;;;;;;;17.02;40.72;102313.81;5057072;28;1028;-63
2024/01/21 04:35:44;;;;;;;;;;;;;;;16.11;42.41;102319.47;5056741;28;1187;-58
2024/01/21 04:38:09;;;;;;;;;;;;;;;15.73;43.41;102315.09;5056643;28;1008;-59
2024/01/21 04:40:36;;;;;;;;;;;;;;;15.59;43.66;102319.91;5056648;28;1179;-60
2024/01/21 04:43:02;;;;;;;;;;;;;;;17.10;40.70;102321.72;5056777;28;1151;-61
2024/01/21 04:45:27;;;;;;;;;;;;;;;17.39;39.64;102335.56;5056897;28;1989;-63
2024/01/21 04:47:53;;;;;;;;;;;;;;;16.28;42.23;102333.38;5056226;28;1004;-61
2024/01/21 04:50:18;;;;;;;;;;;;;;;15.90;43.11;102340.03;5056860;28;1122;-60
2024/01/21 04:52:44;;;;;;;;;;;;;;;15.53;43.94;102334.53;5056943;28;1103;-62
2024/01/21 04:55:09;;;;;;;;;;;;;;;16.38;42.19;102341.91;5056103;28;1120;-61
2024/01/21 04:57:35;;;;;;;;;;;;;;;17.50;39.64;102344.03;5055554;28;2555;-59
2024/01/21 05:00:00;;;;;;;;;;;;;;;16.48;41.35;102343.22;5056563;28;1115;-58
2024/01/21 05:02:26;;;;;;;;;;;;;;;15.87;43.04;102354.19;5057286;28;1626;-60
2024/01/21 05:04:51;;;;;;;;;;;;;;;15.52;43.42;102355.63;5062137;28;1036;-63
2024/01/21 05:07:17;;;;;;;;;;;;;;;15.73;43.42;102353.50;5057464;28;1222;-60
2024/01/21 05:09:44;;;;;;;;;;;;;;;17.20;40.08;102347.78;5056011;28;1052;-59
2024/01/21 05:12:09;;;;;;;;;;;;;;;17.23;39.74;102350.84;5055230;28;992;-59
2024/01/21 05:14:35;;;;;;;;;;;;;;;16.21;41.71;102349.09;5064238;28;1194;-59
2024/01/21 05:17:01;;;;;;;;;;;;;;;15.76;42.71;102353.03;5047405;28;1083;-58
2024/01/21 05:19:26;;;;;;;;;;;;;;;15.48;43.45;102345.34;5055644;28;1202;-60
2024/01/21 05:21:52;;;;;;;;;;;;;;;17.34;39.86;102356.63;5056039;28;1023;-58
2024/01/21 05:24:17;;;;;;;;;;;;;;;16.19;42.13;102351.25;5055606;28;1083;-57
2024/01/21 05:26:46;;;;;;;;;;;;;;;15.70;43.17;102359.44;5055663;28;2378;-57
2024/01/21 05:29:11;;;;;;;;;;;;;;;15.79;43.06;102358.06;5055589;28;1024;-59
2024/01/21 05:31:37;;;;;;;;;;;;;;;16.23;42.10;102363.44;5055863;28;1097;-59
2024/01/21 05:34:03;;;;;;;;;;;;;;;16.94;40.65;102369.13;5055590;28;1012;-60
2024/01/21 05:36:28;;;;;;;;;;;;;;;17.89;38.95;102353.41;5055594;28;1067;-59
2024/01/21 05:38:54;;;;;;;;;;;;;;;16.50;41.51;102360.31;5055455;28;1008;-57
2024/01/21 05:41:19;;;;;;;;;;;;;;;15.95;42.66;102374.97;5054276;28;1020;-57
2024/01/21 05:43:45;;;;;;;;;;;;;;;16.74;40.87;102373.00;5055458;28;1040;-56
2024/01/21 05:46:10;;;;;;;;;;;;;;;16.01;42.58;102372.16;5057139;28;1918;-58
2024/01/21 05:48:36;;;;;;;;;;;;;;;17.60;39.54;102371.78;5052780;28;1005;-58
2024/01/21 05:51:01;;;;;;;;;;;;;;;16.67;41.26;102383.28;5051428;28;1357;-60
2024/01/21 05:53:27;;;;;;;;;;;;;;;16.05;42.26;102372.56;5053577;28;1301;-61
2024/01/21 05:55:53;;;;;;;;;;;;;;;17.08;40.14;102384.34;5058177;28;1845;-60
2024/01/21 05:58:18;;;;;;;;;;;;;;;16.06;42.53;102382.44;5053917;28;1146;-60
2024/01/21 06:00:44;;;;;;;;;;;;;;;16.50;41.88;102388.59;5051508;28;1135;-61
2024/01/21 06:03:09;;;;;;;;;;;;;;;16.92;40.37;102388.59;5054766;28;1057;-58
2024/01/21 06:05:35;;;;;;;;;;;;;;;16.18;42.16;102391.56;5063909;28;1901;-57
2024/01/21 06:08:00;;;;;;;;;;;;;;;17.83;38.96;102386.56;5053030;28;1063;-58
2024/01/21 06:10:25;;;;;;;;;;;;;;;16.76;40.76;102389.28;5049511;28;1115;-61
2024/01/21 06:12:51;;;;;;;;;;;;;;;16.22;41.94;102394.69;5055603;28;1004;-61
2024/01/21 06:15:16;;;;;;;;;;;;;;;17.21;40.23;102393.44;5055215;28;1199;-58
2024/01/21 06:17:43;;;;;;;;;;;;;;;16.25;41.87;102388.75;5060797;28;1501;-61
2024/01/21 06:20:09;;;;;;;;;;;;;;;16.46;41.66;102401.13;5065585;28;1178;-62
2024/01/21 06:22:35;;;;;;;;;;;;;;;17.41;39.45;102409.56;5065269;28;1155;-56
2024/01/21 06:25:01;;;;;;;;;;;;;;;16.37;41.62;102414.34;5055192;28;1930;-60
2024/01/21 06:27:26;;;;;;;;;;;;;;;17.70;39.00;102410.50;5055501;28;2566;-62
2024/01/21 06:29:52;;;;;;;;;;;;;;;16.96;40.34;102407.38;5054961;28;1178;-62
2024/01/21 06:32:17;;;;;;;;;;;;;;;16.29;41.88;102411.91;5055326;28;1129;-58
2024/01/21 06:34:43;;;;;;;;;;;;;;;16.01;42.49;102410.56;5054912;28;964;-60
2024/01/21 06:37:08;;;;;;;;;;;;;;;16.64;40.94;102419.44;5054862;28;1063;-60
2024/01/21 06:39:34;;;;;;;;;;;;;;;16.13;42.51;102407.06;5055579;28;1139;-61
2024/01/21 06:42:00;;;;;;;;;;;;;;;17.87;38.87;102427.09;5054402;28;979;-60
2024/01/21 06:44:26;;;;;;;;;;;;;;;16.58;41.03;102417.66;5054956;28;1011;-61
2024/01/21 06:46:51;;;;;;;;;;;;;;;16.13;42.05;102407.91;5055073;28;1985;-58
2024/01/21 06:49:17;;;;;;;;;;;;;;;17.48;39.55;102412.19;5055511;28;1099;-59
2024/01/21 06:51:46;;;;;;;;;;;;;;;16.38;41.52;102406.94;5055562;28;1215;-59
2024/01/21 06:54:14;;;;;;;;;;;;;;;17.52;39.47;102410.66;5058500;28;1078;-60
2024/01/21 06:56:40;;;;;;;;;;;;;;;17.39;39.39;102404.31;5058464;28;1796;-61
2024/01/21 06:59:05;;;;;;;;;;;;;;;16.42;41.64;102408.16;5058657;28;1120;-61
2024/01/21 07:01:31;;;;;;;;;;;;;;;16.16;42.01;102412.06;5058018;28;1043;-59
2024/01/21 07:03:57;;;;;;;;;;;;;;;16.85;40.43;102414.50;5058092;28;1304;-61
2024/01/21 07:06:22;;;;;;;;;;;;;;;17.44;39.71;102409.09;5058301;28;1977;-63
2024/01/21 07:08:48;;;;;;;;;;;;;;;18.51;37.41;102414.34;5058784;28;1059;-58
2024/01/21 07:11:13;;;;;;;;;;;;;;;17.11;39.95;102407.78;5058148;28;1075;-61
2024/01/21 07:13:39;;;;;;;;;;;;;;;16.54;41.07;102413.69;5058514;28;1059;-61
2024/01/21 07:16:04;;;;;;;;;;;;;;;17.28;39.58;102419.72;5057975;28;1043;-60
2024/01/21 07:18:30;;;;;;;;;;;;;;;16.54;41.19;102419.19;5058032;28;876;-61
2024/01/21 07:20:55;;;;;;;;;;;;;;;18.16;38.21;102415.31;5057554;28;1012;-61
2024/01/21 07:23:21;;;;;;;;;;;;;;;17.18;39.82;102422.25;5057708;28;1039;-60
2024/01/21 07:25:47;;;;;;;;;;;;;;;16.51;41.11;102427.88;5059348;28;2255;-61
2024/01/21 07:28:12;;;;;;;;;;;;;;;16.84;40.81;102424.63;5068695;28;1019;-64
2024/01/21 07:30:38;;;;;;;;;;;;;;;16.88;40.25;102430.50;5057496;28;1119;-61
2024/01/21 07:33:03;;;;;;;;;;;;;;;16.35;41.68;102430.19;5057605;28;1102;-62
2024/01/21 07:35:29;;;;;;;;;;;;;;;17.90;38.37;102425.78;5058025;28;1060;-62
2024/01/21 07:37:54;;;;;;;;;;;;;;;16.66;40.79;102430.19;5062331;28;1261;-58
2024/01/21 07:40:20;;;;;;;;;;;;;;;17.58;39.24;102424.25;5061361;28;1097;-62
2024/01/21 07:42:46;;;;;;;;;;;;;;;17.37;39.35;102433.13;5055264;28;1211;-66
2024/01/21 07:45:11;;;;;;;;;;;;;;;16.55;41.08;102426.34;5060743;28;1894;-61
2024/01/21 07:47:37;;;;;;;;;;;;;;;16.32;41.32;102433.41;5057590;28;1120;-62
2024/01/21 07:50:04;;;;;;;;;;;;;;;17.78;38.55;102429.41;5057109;28;1164;-60
2024/01/21 07:52:30;;;;;;;;;;;;;;;16.54;40.79;102438.41;5057455;28;1020;-64
2024/01/21 07:54:55;;;;;;;;;;;;;;;17.52;39.05;102440.91;5057158;28;1171;-66
2024/01/21 07:57:21;;;;;;;;;;;;;;;17.37;38.98;102450.44;5057480;28;2604;-64
2024/01/21 07:59:46;;;;;;;;;;;;;;;16.63;40.85;102453.47;5057545;28;1028;-64
2024/01/21 08:02:12;;;;;;;;;;;;;;;16.88;40.47;102455.22;5057196;28;1211;-65
2024/01/21 08:04:38;;;;;;;;;;;;;;;16.83;40.16;102452.34;5056279;28;1076;-65
2024/01/21 08:07:03;;;;;;;;;;;;;;;17.22;39.78;102450.06;5057069;28;1983;-60
2024/01/21 08:09:29;;;;;;;;;;;;;;;18.20;37.38;102455.91;5057414;28;1027;-62
2024/01/21 08:11:55;;;;;;;;;;;;;;;16.85;40.33;102461.22;5057759;28;1032;-64
2024/01/21 08:14:20;;;;;;;;;;;;;;;16.37;41.22;102458.25;5057542;28;1040;-63
2024/01/21 08:16:46;;;;;;;;;;;;;;;17.65;38.76;102459.06;5057121;28;1011;-63
2024/01/21 08:19:11;;;;;;;;;;;;;;;16.76;40.24;102466.19;5056440;28;908;-63
2024/01/21 08:21:37;;;;;;;;;;;;;;;17.69;38.71;102461.09;5057174;28;992;-63
2024/01/21 08:24:03;;;;;;;;;;;;;;;17.88;38.10;102466.44;5056096;28;1086;-64
2024/01/21 08:26:29;;;;;;;;;;;;;;;16.83;40.10;102468.81;5038854;28;1906;-63
2024/01/21 08:28:54;;;;;;;;;;;;;;;16.44;40.91;102474.66;5056939;28;1099;-63
2024/01/21 08:31:20;;;;;;;;;;;;;;;16.21;41.02;102453.41;5056622;28;900;-64
2024/01/21 08:33:45;;;;;;;;;;;;;;;17.24;39.30;102461.69;5056285;28;1068;-63
2024/01/21 08:36:11;;;;;;;;;;;;;;;16.54;40.68;102463.13;5056817;28;1186;-62
2024/01/21 08:38:38;;;;;;;;;;;;;;;18.15;37.41;102466.00;5056943;28;1136;-62
2024/01/21 08:41:03;;;;;;;;;;;;;;;17.47;38.43;102471.84;5056840;28;1111;-64
2024/01/21 08:43:29;;;;;;;;;;;;;;;16.73;40.25;102473.00;5056323;28;915;-61
2024/01/21 08:45:54;;;;;;;;;;;;;;;16.58;40.61;102461.59;5056264;28;1985;-61
2024/01/21 08:48:20;;;;;;;;;;;;;;;16.84;39.93;102468.59;5057853;28;1232;-64
2024/01/21 08:50:49;;;;;;;;;;;;;;;17.21;39.18;102470.41;5055001;28;1263;-63
2024/01/21 08:53:14;;;;;;;;;;;;;;;18.44;37.01;102467.69;5039963;28;1103;-64
2024/01/21 08:55:40;;;;;;;;;;;;;;;16.96;39.82;102457.69;5056067;28;2342;-64
2024/01/21 08:58:05;;;;;;;;;;;;;;;16.51;40.57;102469.91;5056259;28;1172;-61
2024/01/21 09:00:31;;;;;;;;;;;;;;;17.16;39.31;102470.28;5056246;28;1120;-61
2024/01/21 09:02:56;;;;;;;;;;;;;;;17.12;39.21;102474.56;5056118;28;1106;-61
2024/01/21 09:05:22;;;;;;;;;;;;;;;16.46;40.72;102463.44;5067637;28;1975;-66
2024/01/21 09:07:47;;;;;;;;;;;;;;;16.68;40.18;102461.84;5057415;28;950;-67
2024/01/21 09:10:14;;;;;;;;;;;;;;;17.50;38.57;102454.03;5062114;28;1031;-65
2024/01/21 09:12:39;;;;;;;;;;;;;;;16.52;40.45;102457.00;5063271;28;1118;-62
2024/01/21 09:15:05;;;;;;;;;;;;;;;16.97;39.63;102448.38;5056092;28;1044;-63
2024/01/21 09:17:32;;;;;;;;;;;;;;;17.47;38.30;102438.84;5056181;28;1066;-66
2024/01/21 09:19:58;;;;;;;;;;;;;;;16.42;40.52;102436.47;5063677;28;855;-64
2024/01/21 09:22:23;;;;;;;;;;;;;;;16.20;41.28;102429.75;5071818;28;1260;-60
2024/01/21 09:24:49;;;;;;;;;;;;;;;16.88;39.75;102416.78;5042553;28;1024;-64
2024/01/21 09:27:15;;;;;;;;;;;;;;;16.97;39.91;102412.66;5061476;28;2416;-60
2024/01/21 09:29:41;;;;;;;;;;;;;;;18.36;36.85;102410.22;5055951;28;1148;-63
2024/01/21 09:32:07;;;;;;;;;;;;;;;17.07;39.25;102407.41;5055213;28;848;-62
2024/01/21 09:34:32;;;;;;;;;;;;;;;16.95;39.55;102408.47;5055601;28;1531;-64
2024/01/21 09:36:58;;;;;;;;;;;;;;;17.69;38.03;102408.81;5055367;28;1099;-62
2024/01/21 09:39:25;;;;;;;;;;;;;;;16.85;39.60;102398.00;5067460;28;948;-65
2024/01/21 09:41:51;;;;;;;;;;;;;;;17.05;39.67;102395.78;5055498;28;1103;-62
2024/01/21 09:44:20;;;;;;;;;;;;;;;17.16;39.07;102393.31;5055593;28;972;-62
2024/01/21 09:46:52;;;;;;;;;;;;;;;16.54;40.53;102402.72;5036951;28;1909;-62
2024/01/21 09:49:17;;;;;;;;;;;;;;;18.07;37.47;102393.69;5055290;28;1008;-64
2024/01/21 09:51:43;;;;;;;;;;;;;;;16.87;39.49;102395.84;5037426;28;1454;-62
2024/01/21 09:54:09;;;;;;;;;;;;;;;16.51;40.52;102409.50;5038033;28;1001;-62
2024/01/21 09:56:34;;;;;;;;;;;;;;;16.80;39.80;102404.19;5055054;28;2467;-64
2024/01/21 09:59:00;;;;;;;;;;;;;;;16.92;39.29;102405.09;5062968;28;1161;-64
2024/01/21 10:01:25;;;;;;;;;;;;;;;16.38;40.87;102399.56;5039984;28;1091;-62
2024/01/21 10:03:51;;;;;;;;;;;;;;;17.45;38.43;102408.84;5056998;28;1274;-66
2024/01/21 10:06:17;;;;;;;;;;;;;;;16.85;39.43;102404.34;5055023;28;1921;-63
2024/01/21 10:08:43;;;;;;;;;;;;;;;17.64;38.34;102405.94;5055245;28;1067;-65
2024/01/21 10:11:08;;;;;;;;;;;;;;;17.95;37.43;102390.16;5055509;28;1147;-64
2024/01/21 10:13:36;;;;;;;;;;;;;;;16.84;39.67;102393.59;5046909;28;1305;-63
2024/01/21 10:16:02;;;;;;;;;;;;;;;16.62;40.28;102399.63;5043884;28;1114;-64
2024/01/21 10:18:28;;;;;;;;;;;;;;;17.01;39.20;102385.50;5054894;28;1021;-64
2024/01/21 10:20:53;;;;;;;;;;;;;;;16.65;40.23;102401.91;5055505;28;1080;-64
2024/01/21 10:23:19;;;;;;;;;;;;;;;18.27;36.92;102397.94;5055253;28;1127;-63
2024/01/21 10:25:47;;;;;;;;;;;;;;;16.99;39.36;102391.25;5055636;28;2473;-62
2024/01/21 10:28:13;;;;;;;;;;;;;;;16.56;40.21;102406.91;5044665;28;1124;-62
2024/01/21 10:30:40;;;;;;;;;;;;;;;17.55;37.94;102388.16;5058962;28;1060;-61
2024/01/21 10:33:06;;;;;;;;;;;;;;;16.66;40.19;102405.47;5059176;28;988;-62
2024/01/21 10:35:32;;;;;;;;;;;;;;;16.28;40.78;102399.25;5059268;28;1063;-62
2024/01/21 10:37:58;;;;;;;;;;;;;;;17.16;38.91;102402.38;5058854;28;1031;-63
2024/01/21 10:40:24;;;;;;;;;;;;;;;16.77;39.97;102402.78;5059247;28;1047;-65
2024/01/21 10:42:53;;;;;;;;;;;;;;;18.30;36.68;102401.03;5040135;28;1047;-66
2024/01/21 10:45:23;;;;;;;;;;;;;;;17.47;38.50;102389.34;5058538;28;1910;-63
2024/01/21 10:47:48;;;;;;;;;;;;;;;16.75;39.65;102396.66;5040982;28;1100;-66
2024/01/21 10:50:14;;;;;;;;;;;;;;;17.69;38.24;102400.56;5058558;28;1135;-64
2024/01/21 10:52:40;;;;;;;;;;;;;;;16.95;39.37;102408.47;5041003;28;1170;-63
2024/01/21 10:55:05;;;;;;;;;;;;;;;16.48;40.28;102411.88;5039090;28;1334;-59
2024/01/21 10:57:31;;;;;;;;;;;;;;;17.01;39.55;102413.00;5057898;28;2440;-67
2024/01/21 10:59:57;;;;;;;;;;;;;;;16.85;39.38;102409.00;5057977;28;1203;-62
2024/01/21 11:02:22;;;;;;;;;;;;;;;16.31;40.55;102408.94;5058614;28;1116;-60
2024/01/21 11:04:48;;;;;;;;;;;;;;;17.53;38.14;102415.91;5058141;28;1000;-61
2024/01/21 11:07:13;;;;;;;;;;;;;;;16.51;40.47;102427.88;5058174;28;1923;-61
2024/01/21 11:09:39;;;;;;;;;;;;;;;17.55;38.17;102426.66;5040504;28;1045;-59
2024/01/21 11:12:05;;;;;;;;;;;;;;;17.14;39.01;102444.91;5058354;28;1096;-60
2024/01/21 11:14:34;;;;;;;;;;;;;;;17.37;38.55;102438.63;5057820;28;1091;-62
2024/01/21 11:17:00;;;;;;;;;;;;;;;18.65;36.11;102446.03;5058069;28;1076;-62
2024/01/21 11:19:29;;;;;;;;;;;;;;;17.13;38.97;102441.34;5057819;28;1163;-63
2024/01/21 11:21:55;;;;;;;;;;;;;;;16.64;39.97;102441.44;5058125;28;1047;-62
2024/01/21 11:24:20;;;;;;;;;;;;;;;17.48;38.31;102432.28;5058469;28;1096;-62
2024/01/21 11:26:47;;;;;;;;;;;;;;;16.68;39.77;102437.13;5039862;28;1980;-66
2024/01/21 11:29:31;;;;;;;;;;;;;;;18.12;36.97;102429.59;5058571;28;1095;-64
2024/01/21 11:32:03;;;;;;;;;;;;;;;17.20;38.72;102446.75;5057892;28;1008;-64
2024/01/21 11:34:29;;;;;;;;;;;;;;;16.52;40.23;102443.28;5057850;28;1071;-64
2024/01/21 11:36:55;;;;;;;;;;;;;;;16.60;40.01;102445.72;5040042;28;1092;-63
2024/01/21 11:39:21;;;;;;;;;;;;;;;17.21;38.79;102434.69;5038866;28;1068;-64
2024/01/21 11:41:47;;;;;;;;;;;;;;;16.51;40.19;102438.84;5057531;28;1119;-63
2024/01/21 11:44:25;;;;;;;;;;;;;;;17.84;37.83;102446.00;5057722;28;892;-63
2024/01/21 11:46:57;;;;;;;;;;;;;;;16.79;39.39;102440.16;5057264;28;1980;-65
2024/01/21 11:49:23;;;;;;;;;;;;;;;16.35;40.46;102443.09;5057364;28;1219;-61
2024/01/21 11:51:49;;;;;;;;;;;;;;;17.12;39.19;102441.59;5068887;28;866;-61
2024/01/21 11:54:15;;;;;;;;;;;;;;;16.77;39.54;102441.25;5057340;28;1047;-60
2024/01/21 11:56:41;;;;;;;;;;;;;;;16.28;40.42;102436.84;5056816;28;2435;-65
2024/01/21 11:59:08;;;;;;;;;;;;;;;17.55;38.14;102441.25;5053286;28;1064;-64
2024/01/21 12:01:33;;;;;;;;;;;;;;;16.61;39.85;102441.91;5057347;28;1564;-64
2024/01/21 12:04:06;;;;;;;;;;;;;;;16.20;40.49;102440.72;5069703;28;1164;-65
2024/01/21 12:06:32;;;;;;;;;;;;;;;16.60;40.11;102442.97;5057131;28;1905;-63
2024/01/21 12:08:58;;;;;;;;;;;;;;;17.07;38.58;102440.38;5056904;28;997;-61
2024/01/21 12:11:24;;;;;;;;;;;;;;;16.28;40.71;102448.66;5051447;28;1455;-64
2024/01/21 12:13:49;;;;;;;;;;;;;;;16.02;40.95;102447.94;5065215;28;959;-64
2024/01/21 12:16:16;;;;;;;;;;;;;;;17.29;38.45;102439.78;5057251;28;1195;-64
2024/01/21 12:18:42;;;;;;;;;;;;;;;16.21;40.58;102440.50;5056912;28;1051;-63
2024/01/21 12:21:07;;;;;;;;;;;;;;;17.73;37.68;102437.53;5056051;28;1114;-64
2024/01/21 12:23:35;;;;;;;;;;;;;;;17.10;38.57;102430.81;5056948;28;1301;-63
2024/01/21 12:26:00;;;;;;;;;;;;;;;17.49;38.14;102442.22;5056472;28;1945;-63
2024/01/21 12:28:26;;;;;;;;;;;;;;;18.44;36.16;102442.91;5057179;28;1044;-62
2024/01/21 12:30:53;;;;;;;;;;;;;;;17.04;38.78;102440.84;5060132;28;1169;-63
2024/01/21 12:33:18;;;;;;;;;;;;;;;16.57;39.82;102446.19;5034483;28;918;-64
2024/01/21 12:35:44;;;;;;;;;;;;;;;16.31;40.45;102450.94;5057721;28;1333;-62
2024/01/21 12:38:09;;;;;;;;;;;;;;;17.45;38.22;102444.59;5056925;28;1281;-63
2024/01/21 12:40:35;;;;;;;;;;;;;;;16.79;39.47;102448.38;5056386;28;1325;-60